sensor_id;sensor_type;location;lat;lon;timestamp;temperature;humidity
36416;DHT22;22447;44.530;18.620;2023-10-09T00:01:27;14.30;78.30
36416;DHT22;22447;44.530;18.620;2023-10-09T00:03:54;14.30;80.50
36416;DHT22;22447;44.530;18.620;2023-10-09T00:06:23;14.30;81.30
36416;DHT22;22447;44.530;18.620;2023-10-09T00:08:57;14.20;81.60
36416;DHT22;22447;44.530;18.620;2023-10-09T00:11:24;14.10;81.90
36416;DHT22;22447;44.530;18.620;2023-10-09T00:13:55;14.00;82.70
36416;DHT22;22447;44.530;18.620;2023-10-09T00:16:24;13.90;83.30
36416;DHT22;22447;44.530;18.620;2023-10-09T00:19:00;13.90;83.70
36416;DHT22;22447;44.530;18.620;2023-10-09T00:21:42;13.90;83.70
36416;DHT22;22447;44.530;18.620;2023-10-09T00:24:09;13.70;83.50
36416;DHT22;22447;44.530;18.620;2023-10-09T00:26:50;13.60;83.00
36416;DHT22;22447;44.530;18.620;2023-10-09T00:29:17;13.50;85.00
36416;DHT22;22447;44.530;18.620;2023-10-09T00:31:54;13.50;85.40
36416;DHT22;22447;44.530;18.620;2023-10-09T00:34:21;13.40;85.80
36416;DHT22;22447;44.530;18.620;2023-10-09T00:36:48;13.30;85.60
36416;DHT22;22447;44.530;18.620;2023-10-09T00:39:20;13.30;86.10
36416;DHT22;22447;44.530;18.620;2023-10-09T00:42:06;13.20;88.00
36416;DHT22;22447;44.530;18.620;2023-10-09T00:44:32;13.00;87.80
36416;DHT22;22447;44.530;18.620;2023-10-09T00:47:06;12.90;88.40
36416;DHT22;22447;44.530;18.620;2023-10-09T00:49:37;12.90;88.70
36416;DHT22;22447;44.530;18.620;2023-10-09T00:52:08;12.80;89.00
36416;DHT22;22447;44.530;18.620;2023-10-09T00:54:43;12.80;89.80
36416;DHT22;22447;44.530;18.620;2023-10-09T00:57:09;12.70;89.20
36416;DHT22;22447;44.530;18.620;2023-10-09T00:59:39;12.50;89.70
36416;DHT22;22447;44.530;18.620;2023-10-09T01:02:08;12.40;90.20
36416;DHT22;22447;44.530;18.620;2023-10-09T01:04:35;12.30;90.80
36416;DHT22;22447;44.530;18.620;2023-10-09T01:07:08;12.20;91.40
36416;DHT22;22447;44.530;18.620;2023-10-09T01:09:36;12.20;91.80
36416;DHT22;22447;44.530;18.620;2023-10-09T01:12:04;12.10;92.40
36416;DHT22;22447;44.530;18.620;2023-10-09T01:14:30;12.10;93.30
36416;DHT22;22447;44.530;18.620;2023-10-09T01:16:57;12.00;94.20
36416;DHT22;22447;44.530;18.620;2023-10-09T01:19:23;12.00;94.50
36416;DHT22;22447;44.530;18.620;2023-10-09T01:21:56;12.00;95.10
36416;DHT22;22447;44.530;18.620;2023-10-09T01:24:30;12.00;95.20
36416;DHT22;22447;44.530;18.620;2023-10-09T01:27:02;11.80;95.60
36416;DHT22;22447;44.530;18.620;2023-10-09T01:29:31;11.80;96.30
36416;DHT22;22447;44.530;18.620;2023-10-09T01:31:56;11.80;96.70
36416;DHT22;22447;44.530;18.620;2023-10-09T01:34:29;11.60;97.00
36416;DHT22;22447;44.530;18.620;2023-10-09T01:37:11;11.60;97.80
36416;DHT22;22447;44.530;18.620;2023-10-09T01:39:50;11.60;98.00
36416;DHT22;22447;44.530;18.620;2023-10-09T01:42:23;11.50;97.80
36416;DHT22;22447;44.530;18.620;2023-10-09T01:44:55;11.40;98.20
36416;DHT22;22447;44.530;18.620;2023-10-09T01:47:23;11.40;98.80
36416;DHT22;22447;44.530;18.620;2023-10-09T01:49:51;11.30;99.30
36416;DHT22;22447;44.530;18.620;2023-10-09T01:52:19;11.40;99.30
36416;DHT22;22447;44.530;18.620;2023-10-09T01:54:46;11.30;99.50
36416;DHT22;22447;44.530;18.620;2023-10-09T01:57:15;11.30;99.80
36416;DHT22;22447;44.530;18.620;2023-10-09T01:59:47;11.20;99.10
36416;DHT22;22447;44.530;18.620;2023-10-09T02:02:15;11.10;99.40
36416;DHT22;22447;44.530;18.620;2023-10-09T02:05:01;11.10;99.90
36416;DHT22;22447;44.530;18.620;2023-10-09T02:07:50;11.10;99.90
36416;DHT22;22447;44.530;18.620;2023-10-09T02:13:05;11.00;99.90
36416;DHT22;22447;44.530;18.620;2023-10-09T02:15:38;11.00;99.90
36416;DHT22;22447;44.530;18.620;2023-10-09T02:20:44;10.90;99.90
36416;DHT22;22447;44.530;18.620;2023-10-09T02:23:13;10.80;99.90
36416;DHT22;22447;44.530;18.620;2023-10-09T02:25:42;10.80;99.90
36416;DHT22;22447;44.530;18.620;2023-10-09T02:28:09;10.80;99.90
36416;DHT22;22447;44.530;18.620;2023-10-09T02:30:43;10.70;99.90
36416;DHT22;22447;44.530;18.620;2023-10-09T02:33:16;10.60;99.90
36416;DHT22;22447;44.530;18.620;2023-10-09T02:35:53;10.60;99.90
36416;DHT22;22447;44.530;18.620;2023-10-09T02:38:20;10.50;99.90
36416;DHT22;22447;44.530;18.620;2023-10-09T02:40:52;10.40;99.90
36416;DHT22;22447;44.530;18.620;2023-10-09T02:43:31;10.50;99.90
36416;DHT22;22447;44.530;18.620;2023-10-09T02:46:03;10.40;99.90
36416;DHT22;22447;44.530;18.620;2023-10-09T02:48:55;10.40;99.90
36416;DHT22;22447;44.530;18.620;2023-10-09T02:51:22;10.40;99.90
36416;DHT22;22447;44.530;18.620;2023-10-09T02:53:51;10.30;99.90
36416;DHT22;22447;44.530;18.620;2023-10-09T02:56:17;10.40;99.90
36416;DHT22;22447;44.530;18.620;2023-10-09T02:58:50;10.30;99.90
36416;DHT22;22447;44.530;18.620;2023-10-09T03:01:16;10.10;99.90
36416;DHT22;22447;44.530;18.620;2023-10-09T03:03:42;10.00;99.90
36416;DHT22;22447;44.530;18.620;2023-10-09T03:06:13;10.00;99.90
36416;DHT22;22447;44.530;18.620;2023-10-09T03:08:39;10.00;99.90
36416;DHT22;22447;44.530;18.620;2023-10-09T03:11:08;10.00;99.90
36416;DHT22;22447;44.530;18.620;2023-10-09T03:13:40;9.90;99.90
36416;DHT22;22447;44.530;18.620;2023-10-09T03:16:08;9.90;99.90
36416;DHT22;22447;44.530;18.620;2023-10-09T03:18:40;9.90;99.90
36416;DHT22;22447;44.530;18.620;2023-10-09T03:21:05;9.90;99.90
36416;DHT22;22447;44.530;18.620;2023-10-09T03:23:33;9.90;99.90
36416;DHT22;22447;44.530;18.620;2023-10-09T03:25:59;9.90;99.90
36416;DHT22;22447;44.530;18.620;2023-10-09T03:28:27;9.80;99.90
36416;DHT22;22447;44.530;18.620;2023-10-09T03:30:52;9.80;99.90
36416;DHT22;22447;44.530;18.620;2023-10-09T03:33:18;9.80;99.90
36416;DHT22;22447;44.530;18.620;2023-10-09T03:35:44;9.70;99.90
36416;DHT22;22447;44.530;18.620;2023-10-09T03:38:10;9.70;99.90
36416;DHT22;22447;44.530;18.620;2023-10-09T03:40:42;9.80;99.90
36416;DHT22;22447;44.530;18.620;2023-10-09T03:43:09;9.90;99.90
36416;DHT22;22447;44.530;18.620;2023-10-09T03:45:36;9.80;99.90
36416;DHT22;22447;44.530;18.620;2023-10-09T03:48:04;9.70;99.90
36416;DHT22;22447;44.530;18.620;2023-10-09T03:50:37;9.70;99.90
36416;DHT22;22447;44.530;18.620;2023-10-09T03:53:06;9.70;99.90
36416;DHT22;22447;44.530;18.620;2023-10-09T03:55:36;9.60;99.90
36416;DHT22;22447;44.530;18.620;2023-10-09T03:58:08;9.60;99.90
36416;DHT22;22447;44.530;18.620;2023-10-09T04:00:37;9.40;99.90
36416;DHT22;22447;44.530;18.620;2023-10-09T04:03:14;9.50;99.90
36416;DHT22;22447;44.530;18.620;2023-10-09T04:05:41;9.50;99.90
36416;DHT22;22447;44.530;18.620;2023-10-09T04:08:11;9.40;99.90
36416;DHT22;22447;44.530;18.620;2023-10-09T04:10:45;9.40;99.90
36416;DHT22;22447;44.530;18.620;2023-10-09T04:13:27;9.30;99.90
36416;DHT22;22447;44.530;18.620;2023-10-09T04:15:59;9.30;99.90
36416;DHT22;22447;44.530;18.620;2023-10-09T04:18:34;9.40;99.90
36416;DHT22;22447;44.530;18.620;2023-10-09T04:21:05;9.40;99.90
36416;DHT22;22447;44.530;18.620;2023-10-09T04:24:03;9.30;99.90
36416;DHT22;22447;44.530;18.620;2023-10-09T04:26:35;9.30;99.90
36416;DHT22;22447;44.530;18.620;2023-10-09T04:29:03;9.30;99.90
36416;DHT22;22447;44.530;18.620;2023-10-09T04:31:29;9.30;99.90
36416;DHT22;22447;44.530;18.620;2023-10-09T04:34:00;9.30;99.90
36416;DHT22;22447;44.530;18.620;2023-10-09T04:36:44;9.30;99.90
36416;DHT22;22447;44.530;18.620;2023-10-09T04:39:34;9.30;99.90
36416;DHT22;22447;44.530;18.620;2023-10-09T04:41:59;9.30;99.90
36416;DHT22;22447;44.530;18.620;2023-10-09T04:44:44;9.40;99.90
36416;DHT22;22447;44.530;18.620;2023-10-09T04:47:29;9.40;99.90
36416;DHT22;22447;44.530;18.620;2023-10-09T04:50:15;9.40;99.90
36416;DHT22;22447;44.530;18.620;2023-10-09T04:52:44;9.30;99.90
36416;DHT22;22447;44.530;18.620;2023-10-09T04:55:10;9.30;99.90
36416;DHT22;22447;44.530;18.620;2023-10-09T04:57:36;9.20;99.90
36416;DHT22;22447;44.530;18.620;2023-10-09T05:00:12;9.30;99.90
36416;DHT22;22447;44.530;18.620;2023-10-09T05:02:54;9.40;99.90
36416;DHT22;22447;44.530;18.620;2023-10-09T05:05:23;9.40;99.90
36416;DHT22;22447;44.530;18.620;2023-10-09T05:08:15;9.40;99.90
36416;DHT22;22447;44.530;18.620;2023-10-09T05:10:47;9.40;99.90
36416;DHT22;22447;44.530;18.620;2023-10-09T05:13:32;9.40;99.90
36416;DHT22;22447;44.530;18.620;2023-10-09T05:18:30;9.50;99.90
36416;DHT22;22447;44.530;18.620;2023-10-09T05:21:05;9.70;99.90
36416;DHT22;22447;44.530;18.620;2023-10-09T05:23:49;10.00;99.90
36416;DHT22;22447;44.530;18.620;2023-10-09T05:26:36;10.30;99.90
36416;DHT22;22447;44.530;18.620;2023-10-09T05:29:29;10.60;99.90
36416;DHT22;22447;44.530;18.620;2023-10-09T05:31:58;11.00;99.90
36416;DHT22;22447;44.530;18.620;2023-10-09T05:34:26;11.30;99.90
36416;DHT22;22447;44.530;18.620;2023-10-09T05:37:10;11.70;99.90
36416;DHT22;22447;44.530;18.620;2023-10-09T05:39:46;12.20;99.90
36416;DHT22;22447;44.530;18.620;2023-10-09T05:42:35;12.60;99.90
36416;DHT22;22447;44.530;18.620;2023-10-09T05:45:07;13.10;99.10
36416;DHT22;22447;44.530;18.620;2023-10-09T05:47:46;13.60;97.30
36416;DHT22;22447;44.530;18.620;2023-10-09T05:50:31;14.00;95.80
36416;DHT22;22447;44.530;18.620;2023-10-09T05:53:22;14.00;93.90
36416;DHT22;22447;44.530;18.620;2023-10-09T05:56:06;14.20;93.60
36416;DHT22;22447;44.530;18.620;2023-10-09T05:58:51;14.70;93.20
36416;DHT22;22447;44.530;18.620;2023-10-09T06:01:45;14.60;92.30
36416;DHT22;22447;44.530;18.620;2023-10-09T06:04:30;14.60;91.90
36416;DHT22;22447;44.530;18.620;2023-10-09T06:07:14;14.60;92.30
36416;DHT22;22447;44.530;18.620;2023-10-09T06:09:50;14.90;91.90
36416;DHT22;22447;44.530;18.620;2023-10-09T06:12:21;14.50;90.10
36416;DHT22;22447;44.530;18.620;2023-10-09T06:15:15;14.20;91.50
36416;DHT22;22447;44.530;18.620;2023-10-09T06:18:04;14.10;92.80
36416;DHT22;22447;44.530;18.620;2023-10-09T06:20:51;14.20;91.80
36416;DHT22;22447;44.530;18.620;2023-10-09T06:23:43;14.00;91.20
36416;DHT22;22447;44.530;18.620;2023-10-09T06:26:27;14.40;91.30
36416;DHT22;22447;44.530;18.620;2023-10-09T06:28:58;14.70;91.20
36416;DHT22;22447;44.530;18.620;2023-10-09T06:31:40;15.10;89.60
36416;DHT22;22447;44.530;18.620;2023-10-09T06:34:27;14.50;90.50
36416;DHT22;22447;44.530;18.620;2023-10-09T06:37:01;14.70;90.00
36416;DHT22;22447;44.530;18.620;2023-10-09T06:39:44;14.40;89.10
36416;DHT22;22447;44.530;18.620;2023-10-09T06:42:25;15.10;88.80
36416;DHT22;22447;44.530;18.620;2023-10-09T06:45:10;15.70;88.40
36416;DHT22;22447;44.530;18.620;2023-10-09T06:47:40;16.70;84.90
36416;DHT22;22447;44.530;18.620;2023-10-09T06:50:22;17.10;81.60
36416;DHT22;22447;44.530;18.620;2023-10-09T06:52:48;17.70;78.60
36416;DHT22;22447;44.530;18.620;2023-10-09T06:55:24;18.00;76.80
36416;DHT22;22447;44.530;18.620;2023-10-09T06:58:14;17.50;72.30
36416;DHT22;22447;44.530;18.620;2023-10-09T07:00:51;18.00;73.30
36416;DHT22;22447;44.530;18.620;2023-10-09T07:03:35;18.70;70.40
36416;DHT22;22447;44.530;18.620;2023-10-09T07:06:03;18.50;71.30
36416;DHT22;22447;44.530;18.620;2023-10-09T07:08:37;19.10;67.10
36416;DHT22;22447;44.530;18.620;2023-10-09T07:11:06;19.20;67.00
36416;DHT22;22447;44.530;18.620;2023-10-09T07:13:53;19.30;62.50
36416;DHT22;22447;44.530;18.620;2023-10-09T07:16:21;18.20;65.60
36416;DHT22;22447;44.530;18.620;2023-10-09T07:18:55;17.90;66.70
36416;DHT22;22447;44.530;18.620;2023-10-09T07:21:21;19.10;65.00
36416;DHT22;22447;44.530;18.620;2023-10-09T07:23:54;20.10;61.60
36416;DHT22;22447;44.530;18.620;2023-10-09T07:26:23;20.40;59.50
36416;DHT22;22447;44.530;18.620;2023-10-09T07:29:03;20.50;57.30
36416;DHT22;22447;44.530;18.620;2023-10-09T07:31:42;20.90;56.80
36416;DHT22;22447;44.530;18.620;2023-10-09T07:34:11;21.20;56.00
36416;DHT22;22447;44.530;18.620;2023-10-09T07:36:55;20.80;55.20
36416;DHT22;22447;44.530;18.620;2023-10-09T07:39:30;20.60;55.70
36416;DHT22;22447;44.530;18.620;2023-10-09T07:42:06;21.10;54.10
36416;DHT22;22447;44.530;18.620;2023-10-09T07:44:44;21.20;54.00
36416;DHT22;22447;44.530;18.620;2023-10-09T07:47:18;20.70;56.00
36416;DHT22;22447;44.530;18.620;2023-10-09T07:50:10;21.20;52.30
36416;DHT22;22447;44.530;18.620;2023-10-09T07:52:46;21.80;51.70
36416;DHT22;22447;44.530;18.620;2023-10-09T07:55:16;21.90;51.70
36416;DHT22;22447;44.530;18.620;2023-10-09T07:58:08;21.60;51.60
36416;DHT22;22447;44.530;18.620;2023-10-09T08:00:40;22.30;49.80
36416;DHT22;22447;44.530;18.620;2023-10-09T08:03:32;22.40;50.10
36416;DHT22;22447;44.530;18.620;2023-10-09T08:06:00;23.60;47.00
36416;DHT22;22447;44.530;18.620;2023-10-09T08:08:44;23.60;47.90
36416;DHT22;22447;44.530;18.620;2023-10-09T08:11:31;23.40;48.20
36416;DHT22;22447;44.530;18.620;2023-10-09T08:14:06;23.50;44.80
36416;DHT22;22447;44.530;18.620;2023-10-09T08:16:47;24.40;45.30
36416;DHT22;22447;44.530;18.620;2023-10-09T08:19:13;24.80;43.00
36416;DHT22;22447;44.530;18.620;2023-10-09T08:21:57;23.30;43.80
36416;DHT22;22447;44.530;18.620;2023-10-09T08:24:53;23.20;43.80
36416;DHT22;22447;44.530;18.620;2023-10-09T08:27:26;23.00;45.10
36416;DHT22;22447;44.530;18.620;2023-10-09T08:32:42;23.60;45.00
36416;DHT22;22447;44.530;18.620;2023-10-09T08:42:20;23.30;44.40
36416;DHT22;22447;44.530;18.620;2023-10-09T08:44:49;24.50;43.60
36416;DHT22;22447;44.530;18.620;2023-10-09T08:47:15;24.70;42.70
36416;DHT22;22447;44.530;18.620;2023-10-09T08:49:40;25.50;41.70
36416;DHT22;22447;44.530;18.620;2023-10-09T08:52:07;26.30;40.50
36416;DHT22;22447;44.530;18.620;2023-10-09T08:54:36;26.70;38.60
36416;DHT22;22447;44.530;18.620;2023-10-09T08:57:02;26.50;37.60
36416;DHT22;22447;44.530;18.620;2023-10-09T08:59:28;25.40;39.80
36416;DHT22;22447;44.530;18.620;2023-10-09T09:01:54;25.40;41.60
36416;DHT22;22447;44.530;18.620;2023-10-09T09:07:05;26.90;38.30
36416;DHT22;22447;44.530;18.620;2023-10-09T09:09:31;26.90;38.70
36416;DHT22;22447;44.530;18.620;2023-10-09T09:11:58;27.20;36.20
36416;DHT22;22447;44.530;18.620;2023-10-09T09:14:37;27.00;37.50
36416;DHT22;22447;44.530;18.620;2023-10-09T09:17:04;26.60;36.50
36416;DHT22;22447;44.530;18.620;2023-10-09T09:19:31;26.40;37.20
36416;DHT22;22447;44.530;18.620;2023-10-09T09:21:57;26.80;38.80
36416;DHT22;22447;44.530;18.620;2023-10-09T09:24:37;26.90;36.90
36416;DHT22;22447;44.530;18.620;2023-10-09T09:27:03;27.50;36.00
36416;DHT22;22447;44.530;18.620;2023-10-09T09:32:04;27.90;34.60
36416;DHT22;22447;44.530;18.620;2023-10-09T09:37:20;27.90;34.80
36416;DHT22;22447;44.530;18.620;2023-10-09T09:39:46;28.50;33.60
36416;DHT22;22447;44.530;18.620;2023-10-09T09:42:17;28.50;33.30
36416;DHT22;22447;44.530;18.620;2023-10-09T09:44:50;28.70;33.40
36416;DHT22;22447;44.530;18.620;2023-10-09T09:47:16;28.60;35.50
36416;DHT22;22447;44.530;18.620;2023-10-09T09:49:50;28.70;34.80
36416;DHT22;22447;44.530;18.620;2023-10-09T09:52:16;28.80;33.70
36416;DHT22;22447;44.530;18.620;2023-10-09T09:54:43;28.70;33.70
36416;DHT22;22447;44.530;18.620;2023-10-09T09:57:09;28.80;34.30
36416;DHT22;22447;44.530;18.620;2023-10-09T09:59:40;28.70;32.70
36416;DHT22;22447;44.530;18.620;2023-10-09T10:02:07;28.50;34.40
36416;DHT22;22447;44.530;18.620;2023-10-09T10:04:39;28.70;32.80
36416;DHT22;22447;44.530;18.620;2023-10-09T10:07:06;28.50;32.80
36416;DHT22;22447;44.530;18.620;2023-10-09T10:09:37;28.90;33.50
36416;DHT22;22447;44.530;18.620;2023-10-09T10:12:07;29.00;34.60
36416;DHT22;22447;44.530;18.620;2023-10-09T10:14:54;29.50;32.60
36416;DHT22;22447;44.530;18.620;2023-10-09T10:18:09;29.80;33.80
36416;DHT22;22447;44.530;18.620;2023-10-09T10:20:59;30.20;30.00
36416;DHT22;22447;44.530;18.620;2023-10-09T10:23:25;29.80;30.00
36416;DHT22;22447;44.530;18.620;2023-10-09T10:26:15;29.00;32.20
36416;DHT22;22447;44.530;18.620;2023-10-09T10:28:41;28.90;32.00
36416;DHT22;22447;44.530;18.620;2023-10-09T10:31:11;28.50;32.30
36416;DHT22;22447;44.530;18.620;2023-10-09T10:36:24;29.00;35.20
36416;DHT22;22447;44.530;18.620;2023-10-09T10:39:10;29.70;32.00
36416;DHT22;22447;44.530;18.620;2023-10-09T10:41:45;29.10;31.90
36416;DHT22;22447;44.530;18.620;2023-10-09T10:44:26;29.00;32.00
36416;DHT22;22447;44.530;18.620;2023-10-09T10:47:05;28.70;31.70
36416;DHT22;22447;44.530;18.620;2023-10-09T10:49:32;28.30;34.00
36416;DHT22;22447;44.530;18.620;2023-10-09T10:52:04;28.00;33.60
36416;DHT22;22447;44.530;18.620;2023-10-09T10:54:44;27.20;35.10
36416;DHT22;22447;44.530;18.620;2023-10-09T10:57:13;26.80;36.70
36416;DHT22;22447;44.530;18.620;2023-10-09T10:59:45;26.50;38.10
36416;DHT22;22447;44.530;18.620;2023-10-09T11:02:11;26.80;37.20
36416;DHT22;22447;44.530;18.620;2023-10-09T11:04:37;26.80;36.40
36416;DHT22;22447;44.530;18.620;2023-10-09T11:07:10;26.60;37.80
36416;DHT22;22447;44.530;18.620;2023-10-09T11:09:45;26.90;38.60
36416;DHT22;22447;44.530;18.620;2023-10-09T11:12:26;27.10;36.90
36416;DHT22;22447;44.530;18.620;2023-10-09T11:15:06;27.40;37.60
36416;DHT22;22447;44.530;18.620;2023-10-09T11:17:37;28.20;37.40
36416;DHT22;22447;44.530;18.620;2023-10-09T11:20:04;28.70;34.80
36416;DHT22;22447;44.530;18.620;2023-10-09T11:22:52;29.00;33.80
36416;DHT22;22447;44.530;18.620;2023-10-09T11:25:33;29.30;34.20
36416;DHT22;22447;44.530;18.620;2023-10-09T11:27:59;29.60;32.70
36416;DHT22;22447;44.530;18.620;2023-10-09T11:30:41;29.70;34.30
36416;DHT22;22447;44.530;18.620;2023-10-09T11:33:11;29.90;32.00
36416;DHT22;22447;44.530;18.620;2023-10-09T11:35:53;30.00;35.20
36416;DHT22;22447;44.530;18.620;2023-10-09T11:38:22;29.70;31.50
36416;DHT22;22447;44.530;18.620;2023-10-09T11:40:48;28.60;33.30
36416;DHT22;22447;44.530;18.620;2023-10-09T11:43:17;28.20;34.50
36416;DHT22;22447;44.530;18.620;2023-10-09T11:45:43;28.50;34.10
36416;DHT22;22447;44.530;18.620;2023-10-09T11:48:20;27.40;36.40
36416;DHT22;22447;44.530;18.620;2023-10-09T11:51:11;27.20;38.10
36416;DHT22;22447;44.530;18.620;2023-10-09T11:53:45;27.70;38.20
36416;DHT22;22447;44.530;18.620;2023-10-09T11:56:23;28.50;37.30
36416;DHT22;22447;44.530;18.620;2023-10-09T11:58:52;29.40;35.70
36416;DHT22;22447;44.530;18.620;2023-10-09T12:01:20;28.80;34.10
36416;DHT22;22447;44.530;18.620;2023-10-09T12:03:47;29.60;33.80
36416;DHT22;22447;44.530;18.620;2023-10-09T12:06:19;29.00;35.60
36416;DHT22;22447;44.530;18.620;2023-10-09T12:08:47;28.60;34.70
36416;DHT22;22447;44.530;18.620;2023-10-09T12:11:15;28.60;36.50
36416;DHT22;22447;44.530;18.620;2023-10-09T12:13:50;28.50;36.60
36416;DHT22;22447;44.530;18.620;2023-10-09T12:16:26;29.30;36.10
36416;DHT22;22447;44.530;18.620;2023-10-09T12:18:56;29.30;34.40
36416;DHT22;22447;44.530;18.620;2023-10-09T12:21:22;28.30;36.30
36416;DHT22;22447;44.530;18.620;2023-10-09T12:23:48;28.00;37.00
36416;DHT22;22447;44.530;18.620;2023-10-09T12:26:14;28.50;38.10
36416;DHT22;22447;44.530;18.620;2023-10-09T12:28:40;29.30;36.70
36416;DHT22;22447;44.530;18.620;2023-10-09T12:31:14;29.10;36.30
36416;DHT22;22447;44.530;18.620;2023-10-09T12:33:40;30.00;36.90
36416;DHT22;22447;44.530;18.620;2023-10-09T12:36:06;29.70;34.10
36416;DHT22;22447;44.530;18.620;2023-10-09T12:38:43;29.60;34.20
36416;DHT22;22447;44.530;18.620;2023-10-09T12:41:11;29.00;35.20
36416;DHT22;22447;44.530;18.620;2023-10-09T12:43:54;29.40;37.20
36416;DHT22;22447;44.530;18.620;2023-10-09T12:46:20;29.40;35.80
36416;DHT22;22447;44.530;18.620;2023-10-09T12:48:49;29.70;35.10
36416;DHT22;22447;44.530;18.620;2023-10-09T12:51:15;29.00;36.00
36416;DHT22;22447;44.530;18.620;2023-10-09T12:53:44;29.80;37.10
36416;DHT22;22447;44.530;18.620;2023-10-09T12:56:11;29.80;34.40
36416;DHT22;22447;44.530;18.620;2023-10-09T12:58:40;29.50;35.70
36416;DHT22;22447;44.530;18.620;2023-10-09T13:01:18;29.10;36.10
36416;DHT22;22447;44.530;18.620;2023-10-09T13:03:44;28.50;37.00
36416;DHT22;22447;44.530;18.620;2023-10-09T13:06:15;28.60;38.80
36416;DHT22;22447;44.530;18.620;2023-10-09T13:08:41;28.80;38.70
36416;DHT22;22447;44.530;18.620;2023-10-09T13:11:08;28.60;38.90
36416;DHT22;22447;44.530;18.620;2023-10-09T13:13:37;28.80;39.50
36416;DHT22;22447;44.530;18.620;2023-10-09T13:16:07;29.10;39.60
36416;DHT22;22447;44.530;18.620;2023-10-09T13:18:33;29.40;40.40
36416;DHT22;22447;44.530;18.620;2023-10-09T13:20:59;28.70;38.80
36416;DHT22;22447;44.530;18.620;2023-10-09T13:23:29;29.20;38.50
36416;DHT22;22447;44.530;18.620;2023-10-09T13:26:06;29.40;37.40
36416;DHT22;22447;44.530;18.620;2023-10-09T13:28:44;29.60;37.10
36416;DHT22;22447;44.530;18.620;2023-10-09T13:31:11;29.40;37.30
36416;DHT22;22447;44.530;18.620;2023-10-09T13:33:43;29.10;37.90
36416;DHT22;22447;44.530;18.620;2023-10-09T13:36:11;28.20;38.70
36416;DHT22;22447;44.530;18.620;2023-10-09T13:38:45;28.50;39.20
36416;DHT22;22447;44.530;18.620;2023-10-09T13:41:11;28.60;40.00
36416;DHT22;22447;44.530;18.620;2023-10-09T13:43:41;29.20;39.50
36416;DHT22;22447;44.530;18.620;2023-10-09T13:46:08;28.70;37.70
36416;DHT22;22447;44.530;18.620;2023-10-09T13:48:34;28.90;38.40
36416;DHT22;22447;44.530;18.620;2023-10-09T13:51:04;29.10;39.10
36416;DHT22;22447;44.530;18.620;2023-10-09T13:53:33;28.90;38.10
36416;DHT22;22447;44.530;18.620;2023-10-09T13:56:02;28.60;39.40
36416;DHT22;22447;44.530;18.620;2023-10-09T13:58:28;28.40;39.80
36416;DHT22;22447;44.530;18.620;2023-10-09T14:00:53;28.50;39.50
36416;DHT22;22447;44.530;18.620;2023-10-09T14:03:22;28.50;40.20
36416;DHT22;22447;44.530;18.620;2023-10-09T14:05:49;28.20;40.60
36416;DHT22;22447;44.530;18.620;2023-10-09T14:08:20;28.10;42.80
36416;DHT22;22447;44.530;18.620;2023-10-09T14:10:48;28.20;41.40
36416;DHT22;22447;44.530;18.620;2023-10-09T14:13:15;28.00;42.80
36416;DHT22;22447;44.530;18.620;2023-10-09T14:15:42;27.50;43.30
36416;DHT22;22447;44.530;18.620;2023-10-09T14:18:08;27.20;44.30
36416;DHT22;22447;44.530;18.620;2023-10-09T14:20:37;26.90;46.90
36416;DHT22;22447;44.530;18.620;2023-10-09T14:23:03;26.60;47.80
36416;DHT22;22447;44.530;18.620;2023-10-09T14:25:38;26.70;49.10
36416;DHT22;22447;44.530;18.620;2023-10-09T14:28:05;26.50;49.50
36416;DHT22;22447;44.530;18.620;2023-10-09T14:30:36;26.20;50.70
36416;DHT22;22447;44.530;18.620;2023-10-09T14:33:08;26.10;51.50
36416;DHT22;22447;44.530;18.620;2023-10-09T14:35:38;25.90;52.60
36416;DHT22;22447;44.530;18.620;2023-10-09T14:38:05;25.70;54.20
36416;DHT22;22447;44.530;18.620;2023-10-09T14:40:40;25.60;54.10
36416;DHT22;22447;44.530;18.620;2023-10-09T14:43:07;25.60;54.80
36416;DHT22;22447;44.530;18.620;2023-10-09T14:45:36;25.50;54.90
36416;DHT22;22447;44.530;18.620;2023-10-09T14:48:02;25.50;56.00
36416;DHT22;22447;44.530;18.620;2023-10-09T14:50:28;25.30;56.30
36416;DHT22;22447;44.530;18.620;2023-10-09T14:52:54;25.20;56.10
36416;DHT22;22447;44.530;18.620;2023-10-09T14:55:20;25.00;56.70
36416;DHT22;22447;44.530;18.620;2023-10-09T14:57:54;24.80;58.90
36416;DHT22;22447;44.530;18.620;2023-10-09T15:00:20;24.60;59.90
36416;DHT22;22447;44.530;18.620;2023-10-09T15:02:49;24.50;59.70
36416;DHT22;22447;44.530;18.620;2023-10-09T15:05:16;24.50;60.30
36416;DHT22;22447;44.530;18.620;2023-10-09T15:07:42;24.40;62.30
36416;DHT22;22447;44.530;18.620;2023-10-09T15:10:08;24.20;62.80
36416;DHT22;22447;44.530;18.620;2023-10-09T15:12:35;24.00;64.10
36416;DHT22;22447;44.530;18.620;2023-10-09T15:15:05;23.90;65.60
36416;DHT22;22447;44.530;18.620;2023-10-09T15:17:42;23.90;66.70
36416;DHT22;22447;44.530;18.620;2023-10-09T15:20:13;23.80;67.90
36416;DHT22;22447;44.530;18.620;2023-10-09T15:22:43;23.50;69.40
36416;DHT22;22447;44.530;18.620;2023-10-09T15:25:09;23.30;71.50
36416;DHT22;22447;44.530;18.620;2023-10-09T15:27:40;23.20;73.80
36416;DHT22;22447;44.530;18.620;2023-10-09T15:30:06;23.00;75.80
36416;DHT22;22447;44.530;18.620;2023-10-09T15:32:33;23.00;74.80
36416;DHT22;22447;44.530;18.620;2023-10-09T15:35:00;23.00;75.60
36416;DHT22;22447;44.530;18.620;2023-10-09T15:37:28;22.80;77.90
36416;DHT22;22447;44.530;18.620;2023-10-09T15:39:54;22.60;78.80
36416;DHT22;22447;44.530;18.620;2023-10-09T15:42:20;22.50;80.50
36416;DHT22;22447;44.530;18.620;2023-10-09T15:44:46;22.40;81.10
36416;DHT22;22447;44.530;18.620;2023-10-09T15:47:13;22.20;83.30
36416;DHT22;22447;44.530;18.620;2023-10-09T15:49:41;22.20;84.00
36416;DHT22;22447;44.530;18.620;2023-10-09T15:52:09;22.00;83.40
36416;DHT22;22447;44.530;18.620;2023-10-09T15:54:42;22.00;83.60
36416;DHT22;22447;44.530;18.620;2023-10-09T15:57:08;22.00;84.80
36416;DHT22;22447;44.530;18.620;2023-10-09T15:59:35;21.90;86.50
36416;DHT22;22447;44.530;18.620;2023-10-09T16:02:00;21.80;87.60
36416;DHT22;22447;44.530;18.620;2023-10-09T16:04:28;21.50;89.10
36416;DHT22;22447;44.530;18.620;2023-10-09T16:07:02;21.50;90.20
36416;DHT22;22447;44.530;18.620;2023-10-09T16:09:30;21.30;91.20
36416;DHT22;22447;44.530;18.620;2023-10-09T16:12:00;21.20;91.90
36416;DHT22;22447;44.530;18.620;2023-10-09T16:14:26;21.10;92.60
36416;DHT22;22447;44.530;18.620;2023-10-09T16:16:52;21.00;93.30
36416;DHT22;22447;44.530;18.620;2023-10-09T16:19:20;20.90;93.90